createdAt,value
2017-10-19T00:01:28.044Z,20.10
2017-10-19T00:03:55.618Z,19.27
2017-10-19T00:06:23.152Z,20.80
2017-10-19T00:08:50.700Z,21.03
2017-10-19T00:11:18.626Z,19.87
2017-10-19T00:13:46.150Z,19.63
2017-10-19T00:16:13.683Z,21.50
2017-10-19T00:18:41.209Z,20.20
2017-10-19T00:21:08.739Z,20.60
2017-10-19T00:23:36.252Z,19.93
2017-10-19T00:26:03.803Z,22.07
2017-10-19T00:28:31.722Z,20.73
2017-10-19T00:30:59.270Z,20.90
2017-10-19T00:33:26.788Z,21.90
2017-10-19T00:35:54.320Z,20.07
2017-10-19T00:38:21.849Z,20.03
2017-10-19T00:40:49.367Z,21.57
2017-10-19T00:43:16.907Z,21.43
2017-10-19T00:45:45.049Z,19.30
2017-10-19T00:48:12.580Z,21.00
2017-10-19T00:50:40.083Z,20.53
2017-10-19T00:53:07.632Z,19.97
2017-10-19T00:55:35.154Z,20.47
2017-10-19T00:58:02.678Z,21.00
2017-10-19T01:00:30.220Z,20.87
2017-10-19T01:02:57.739Z,20.43
2017-10-19T01:05:25.269Z,21.47
2017-10-19T01:07:53.193Z,19.80
2017-10-19T01:10:20.725Z,20.93
2017-10-19T01:12:48.633Z,21.70
2017-10-19T01:15:16.194Z,20.40
2017-10-19T01:17:43.729Z,20.90
2017-10-19T01:20:11.653Z,20.50
2017-10-19T01:22:39.186Z,21.00
2017-10-19T01:25:06.706Z,21.20
2017-10-19T01:27:34.239Z,23.13
2017-10-19T01:30:02.170Z,21.77
2017-10-19T01:32:29.796Z,21.93
2017-10-19T01:34:57.710Z,20.87
2017-10-19T01:37:25.286Z,21.10
2017-10-19T01:39:52.903Z,20.43
2017-10-19T01:42:20.426Z,21.10
2017-10-19T01:44:47.970Z,22.53
2017-10-19T01:47:15.524Z,23.33
2017-10-19T01:50:04.300Z,21.17
2017-10-19T01:52:32.227Z,23.47
2017-10-19T01:54:59.762Z,21.27
2017-10-19T01:57:27.730Z,21.10
2017-10-19T01:59:55.648Z,23.12
2017-10-19T02:02:23.182Z,22.23
2017-10-19T02:04:51.099Z,22.30
2017-10-19T02:07:18.623Z,22.43
2017-10-19T02:09:46.261Z,21.97
2017-10-19T02:12:13.837Z,21.03
2017-10-19T02:14:41.399Z,20.50
2017-10-19T02:17:08.918Z,20.50
2017-10-19T02:19:36.884Z,23.33
2017-10-19T02:22:04.412Z,20.52
2017-10-19T02:24:31.944Z,22.33
2017-10-19T02:26:59.482Z,22.17
2017-10-19T02:29:27.021Z,22.70
2017-10-19T02:31:54.569Z,22.60
2017-10-19T02:34:22.116Z,25.10
2017-10-19T02:36:49.662Z,23.50
2017-10-19T02:39:17.199Z,22.58
2017-10-19T02:41:44.778Z,21.77
2017-10-19T02:44:12.317Z,21.87
2017-10-19T02:46:39.876Z,22.27
2017-10-19T02:49:07.817Z,23.05
2017-10-19T02:51:35.358Z,22.10
2017-10-19T02:54:02.917Z,21.12
2017-10-19T02:56:30.448Z,21.70
2017-10-19T02:58:58.025Z,22.47
2017-10-19T03:01:25.545Z,23.43
2017-10-19T03:03:53.981Z,23.45
2017-10-19T03:06:21.512Z,22.87
2017-10-19T03:08:51.343Z,23.00
2017-10-19T03:11:18.911Z,23.25
2017-10-19T03:13:46.448Z,23.38
2017-10-19T03:16:13.991Z,22.10
2017-10-19T03:18:41.549Z,21.87
2017-10-19T03:21:09.109Z,23.53
2017-10-19T03:23:36.631Z,23.90
2017-10-19T03:26:04.171Z,23.17
2017-10-19T03:28:31.729Z,23.57
2017-10-19T03:30:59.267Z,22.13
2017-10-19T03:33:26.843Z,22.87
2017-10-19T03:35:54.780Z,22.67
2017-10-19T03:38:22.356Z,23.33
2017-10-19T03:40:49.910Z,23.02
2017-10-19T03:43:17.500Z,21.80
2017-10-19T03:45:45.072Z,22.50
2017-10-19T03:48:12.607Z,21.45
2017-10-19T03:50:40.164Z,23.97
2017-10-19T03:53:07.755Z,22.13
2017-10-19T03:55:35.308Z,21.55
2017-10-19T03:58:02.873Z,23.48
2017-10-19T04:00:30.830Z,23.20
2017-10-19T04:02:58.370Z,22.47
2017-10-19T04:05:25.943Z,23.12
2017-10-19T04:07:53.524Z,23.52
2017-10-19T04:10:21.055Z,24.45
2017-10-19T04:12:49.011Z,24.33
2017-10-19T04:15:16.587Z,24.07
2017-10-19T04:17:44.131Z,22.92
2017-10-19T04:20:11.701Z,22.80
2017-10-19T04:22:39.269Z,23.43
2017-10-19T04:25:06.861Z,23.33
2017-10-19T04:27:34.442Z,23.67
2017-10-19T04:30:02.025Z,22.20
2017-10-19T04:32:29.967Z,21.95
2017-10-19T04:34:57.537Z,22.95
2017-10-19T04:37:25.089Z,21.57
2017-10-19T04:39:52.671Z,22.27
2017-10-19T04:42:20.221Z,23.35
2017-10-19T04:44:47.741Z,24.15
2017-10-19T04:47:15.644Z,23.10
2017-10-19T04:49:43.193Z,22.87
2017-10-19T04:52:10.794Z,24.17
2017-10-19T04:54:38.765Z,21.03
2017-10-19T04:57:06.298Z,21.23
2017-10-19T04:59:33.831Z,22.65
2017-10-19T05:02:01.395Z,23.73
2017-10-19T05:04:29.323Z,22.77
2017-10-19T05:06:56.853Z,22.43
2017-10-19T05:09:24.796Z,22.58
2017-10-19T05:11:52.320Z,22.77
2017-10-19T05:14:19.858Z,21.67
2017-10-19T05:16:47.387Z,21.93
2017-10-19T05:19:14.949Z,23.33
2017-10-19T05:21:43.389Z,21.50
2017-10-19T05:24:10.920Z,21.92
2017-10-19T05:26:38.451Z,21.10
2017-10-19T05:29:06.556Z,21.43
2017-10-19T05:31:34.135Z,21.92
2017-10-19T05:34:01.670Z,22.45
2017-10-19T05:36:30.445Z,22.33
2017-10-19T05:38:59.271Z,20.27
2017-10-19T05:41:26.903Z,21.40
2017-10-19T05:43:54.547Z,22.67
2017-10-19T05:49:15.057Z,21.00
2017-10-19T05:51:42.650Z,22.05
2017-10-19T05:54:10.212Z,20.77
2017-10-19T05:56:37.755Z,20.37
2017-10-19T05:59:05.341Z,22.30
2017-10-19T06:01:33.298Z,21.67
2017-10-19T06:04:00.879Z,21.62
2017-10-19T06:06:28.418Z,22.50
2017-10-19T06:08:55.982Z,21.67
2017-10-19T06:11:23.567Z,20.50
2017-10-19T06:13:51.134Z,21.62
2017-10-19T06:16:18.728Z,22.45
2017-10-19T06:18:46.391Z,21.60
2017-10-19T06:21:13.973Z,21.10
2017-10-19T06:23:41.535Z,22.80
2017-10-19T06:26:09.104Z,20.50
2017-10-19T06:28:36.651Z,21.13
2017-10-19T06:31:04.212Z,21.60
2017-10-19T06:33:32.168Z,20.87
2017-10-19T06:35:59.743Z,22.13
2017-10-19T06:38:27.675Z,20.47
2017-10-19T06:40:55.218Z,22.10
2017-10-19T06:43:23.160Z,21.73
2017-10-19T06:45:50.692Z,21.80
2017-10-19T06:48:18.270Z,22.40
2017-10-19T06:50:45.810Z,21.10
2017-10-19T06:53:13.756Z,22.10
2017-10-19T06:55:41.358Z,20.00
2017-10-19T06:58:08.920Z,20.80
2017-10-19T07:00:36.450Z,21.33
2017-10-19T07:03:04.028Z,20.27
2017-10-19T07:05:31.575Z,20.87
2017-10-19T07:07:59.134Z,20.20
2017-10-19T07:10:26.677Z,20.53
2017-10-19T07:12:54.231Z,21.17
2017-10-19T07:15:21.768Z,18.90
2017-10-19T07:17:49.341Z,19.73
2017-10-19T07:20:16.879Z,18.77
2017-10-19T07:22:44.810Z,19.60
2017-10-19T07:25:12.362Z,17.87
2017-10-19T07:27:39.913Z,18.67
2017-10-19T07:30:07.481Z,18.40
2017-10-19T07:32:35.005Z,17.87
2017-10-19T07:35:02.558Z,19.27
2017-10-19T07:37:30.098Z,18.10
2017-10-19T07:39:58.068Z,17.67
2017-10-19T07:42:26.008Z,18.27
2017-10-19T07:44:53.570Z,17.70
2017-10-19T07:47:21.120Z,17.57
2017-10-19T07:49:48.695Z,17.57
2017-10-19T07:52:16.243Z,16.47
2017-10-19T07:54:43.801Z,16.87
2017-10-19T07:57:11.337Z,18.20
2017-10-19T07:59:38.892Z,17.07
2017-10-19T08:02:06.416Z,16.50
2017-10-19T08:04:34.380Z,16.50
2017-10-19T08:07:01.936Z,17.90
2017-10-19T08:09:29.491Z,17.33
2017-10-19T08:11:57.055Z,15.60
2017-10-19T08:14:24.588Z,16.83
2017-10-19T08:16:52.554Z,17.27
2017-10-19T08:19:20.083Z,15.97
2017-10-19T08:21:47.645Z,15.73
2017-10-19T08:24:15.190Z,15.33
2017-10-19T08:26:42.754Z,14.40
2017-10-19T08:29:10.692Z,15.70
2017-10-19T08:31:38.254Z,15.80
2017-10-19T08:34:05.785Z,15.03
2017-10-19T08:36:33.349Z,15.67
2017-10-19T08:39:01.284Z,14.20
2017-10-19T08:41:28.835Z,14.27
2017-10-19T08:43:56.381Z,15.33
2017-10-19T08:46:24.333Z,15.07
2017-10-19T08:48:51.873Z,14.70
2017-10-19T08:51:19.418Z,15.40
2017-10-19T08:53:46.982Z,15.83
2017-10-19T08:56:14.535Z,15.83
2017-10-19T08:58:42.477Z,13.57
2017-10-19T09:01:10.015Z,15.10
2017-10-19T09:03:37.580Z,14.93
2017-10-19T09:06:05.131Z,14.90
2017-10-19T09:08:33.097Z,14.70
2017-10-19T09:11:00.636Z,15.07
2017-10-19T09:13:28.205Z,15.17
2017-10-19T09:15:55.742Z,14.80
2017-10-19T09:18:23.289Z,14.20
2017-10-19T09:20:50.827Z,15.17
2017-10-19T09:23:18.375Z,14.60
2017-10-19T09:25:45.901Z,13.93
2017-10-19T09:28:13.865Z,15.67
2017-10-19T09:30:41.396Z,15.80
2017-10-19T09:33:08.938Z,14.00
2017-10-19T09:35:36.866Z,15.30
2017-10-19T09:38:04.409Z,14.90
2017-10-19T09:40:31.947Z,13.90
2017-10-19T09:42:59.506Z,13.97
2017-10-19T09:45:27.037Z,13.80
2017-10-19T09:47:54.604Z,14.03
2017-10-19T09:50:22.129Z,14.33
2017-10-19T09:52:49.650Z,13.40
2017-10-19T09:55:17.319Z,13.60
2017-10-19T09:57:44.871Z,14.03
2017-10-19T10:00:12.425Z,13.60
2017-10-19T10:02:39.949Z,13.97
2017-10-19T10:05:07.494Z,13.73
2017-10-19T10:07:35.037Z,12.03
2017-10-19T10:10:02.590Z,13.73
2017-10-19T10:12:30.129Z,13.60
2017-10-19T10:14:57.682Z,13.87
2017-10-19T10:17:25.220Z,12.30
2017-10-19T10:19:52.761Z,13.90
2017-10-19T10:22:20.376Z,13.50
2017-10-19T10:24:48.345Z,14.37
2017-10-19T10:27:15.892Z,13.00
2017-10-19T10:29:43.445Z,12.90
2017-10-19T10:32:10.984Z,13.57
2017-10-19T10:34:38.919Z,12.83
2017-10-19T10:37:06.458Z,12.90
2017-10-19T10:39:34.017Z,12.37
2017-10-19T10:42:01.572Z,12.60
2017-10-19T10:44:29.507Z,12.80
2017-10-19T10:46:57.048Z,11.47
2017-10-19T10:49:24.584Z,13.33
2017-10-19T10:51:52.142Z,11.73
2017-10-19T10:54:19.673Z,11.80
2017-10-19T10:56:47.223Z,12.10
2017-10-19T10:59:14.752Z,11.03
2017-10-19T11:01:42.301Z,11.63
2017-10-19T11:04:09.824Z,11.53
2017-10-19T11:06:37.762Z,11.83
2017-10-19T11:09:05.283Z,10.97
2017-10-19T11:11:33.229Z,11.67
2017-10-19T11:14:00.769Z,11.00
2017-10-19T11:16:28.322Z,10.77
2017-10-19T11:18:55.872Z,11.77
2017-10-19T11:21:23.420Z,11.67
2017-10-19T11:23:50.985Z,10.77
2017-10-19T11:26:18.548Z,11.40
2017-10-19T11:28:46.094Z,10.17
2017-10-19T11:31:13.624Z,11.87
2017-10-19T11:33:41.699Z,10.53
2017-10-19T11:36:09.227Z,10.60
2017-10-19T11:38:36.758Z,10.80
2017-10-19T11:41:04.301Z,11.53
2017-10-19T11:43:31.897Z,9.63
2017-10-19T11:45:59.824Z,10.50
2017-10-19T11:48:27.365Z,10.33
2017-10-19T11:50:55.286Z,9.50
2017-10-19T11:53:22.828Z,10.57
2017-10-19T11:55:50.372Z,10.87
2017-10-19T11:58:18.320Z,10.77
2017-10-19T12:00:45.838Z,9.80
2017-10-19T12:03:13.381Z,10.10
2017-10-19T12:05:40.917Z,11.60
2017-10-19T12:08:08.470Z,10.90
2017-10-19T12:10:36.014Z,9.63
2017-10-19T12:13:03.566Z,10.47
2017-10-19T12:15:31.093Z,9.80
2017-10-19T12:17:58.654Z,10.60
2017-10-19T12:20:26.181Z,10.40
2017-10-19T12:22:53.748Z,10.30
2017-10-19T12:25:21.293Z,10.23
2017-10-19T12:27:48.825Z,9.97
2017-10-19T12:30:16.761Z,11.20
2017-10-19T12:32:44.313Z,11.03
2017-10-19T12:35:11.845Z,9.70
2017-10-19T12:37:39.382Z,10.67
2017-10-19T12:40:06.953Z,11.00
2017-10-19T12:42:34.512Z,11.10
2017-10-19T12:45:02.071Z,11.00
2017-10-19T12:47:29.596Z,10.67
2017-10-19T12:49:57.562Z,10.50
2017-10-19T12:52:25.084Z,9.87
2017-10-19T12:54:52.643Z,12.03
2017-10-19T12:57:20.172Z,10.67
2017-10-19T12:59:47.714Z,10.40
2017-10-19T13:02:15.256Z,10.97
2017-10-19T13:04:42.801Z,11.20
2017-10-19T13:07:10.720Z,11.27
2017-10-19T13:09:38.283Z,11.30
2017-10-19T13:12:05.823Z,11.37
2017-10-19T13:14:33.362Z,11.20
2017-10-19T13:17:00.909Z,10.77
2017-10-19T13:19:28.429Z,10.80
2017-10-19T13:21:55.978Z,10.73
2017-10-19T13:24:23.503Z,10.63
2017-10-19T13:26:51.051Z,10.00
2017-10-19T13:29:18.972Z,11.20
2017-10-19T13:31:46.519Z,10.47
2017-10-19T13:34:14.037Z,9.90
2017-10-19T13:36:41.583Z,10.63
2017-10-19T13:39:09.129Z,10.13
2017-10-19T13:41:36.685Z,9.30
2017-10-19T13:44:04.210Z,10.03
2017-10-19T13:46:31.782Z,10.20
2017-10-19T13:48:59.312Z,9.83
2017-10-19T13:51:26.870Z,10.40
2017-10-19T13:53:54.414Z,10.30
2017-10-19T13:56:21.961Z,9.93
2017-10-19T13:58:49.513Z,11.50
2017-10-19T14:01:17.073Z,10.40
2017-10-19T14:03:45.050Z,9.27
2017-10-19T14:06:12.968Z,11.63
2017-10-19T14:08:40.508Z,11.03
2017-10-19T14:11:08.045Z,10.93
2017-10-19T14:13:35.598Z,9.80
2017-10-19T14:16:03.127Z,9.20
2017-10-19T14:18:30.668Z,9.00
2017-10-19T14:20:58.197Z,9.50
2017-10-19T14:23:25.763Z,8.90
2017-10-19T14:25:53.305Z,9.30
2017-10-19T14:28:20.871Z,8.43
2017-10-19T14:30:48.411Z,8.70
2017-10-19T14:33:15.936Z,8.60
2017-10-19T14:35:43.466Z,8.63
2017-10-19T14:38:11.044Z,8.33
2017-10-19T14:40:38.984Z,8.07
2017-10-19T14:43:06.638Z,9.07
2017-10-19T14:45:34.161Z,8.80
2017-10-19T14:48:01.876Z,8.50
2017-10-19T14:50:29.413Z,9.07
2017-10-19T14:52:57.344Z,8.40
2017-10-19T14:55:24.888Z,8.00
2017-10-19T14:57:52.822Z,8.47
2017-10-19T15:00:20.360Z,9.30
2017-10-19T15:02:47.902Z,8.70
2017-10-19T15:05:15.840Z,8.87
2017-10-19T15:07:43.383Z,8.30
2017-10-19T15:10:10.917Z,8.50
2017-10-19T15:12:38.845Z,8.53
2017-10-19T15:15:06.501Z,7.90
2017-10-19T15:17:34.023Z,7.67
2017-10-19T15:20:01.620Z,11.40
2017-10-19T15:22:29.534Z,8.30
2017-10-19T15:24:57.086Z,8.20
2017-10-19T15:27:25.079Z,8.60
2017-10-19T15:29:52.644Z,9.10
2017-10-19T15:32:20.181Z,9.53
2017-10-19T15:34:47.752Z,9.57
2017-10-19T15:37:15.290Z,8.17
2017-10-19T15:39:42.855Z,8.30
2017-10-19T15:42:10.372Z,8.50
2017-10-19T15:44:38.054Z,8.30
2017-10-19T15:47:05.605Z,8.33
2017-10-19T15:49:33.157Z,8.30
2017-10-19T15:52:01.153Z,8.10
2017-10-19T15:54:28.807Z,9.30
2017-10-19T15:56:56.360Z,8.57
2017-10-19T15:59:24.322Z,8.73
2017-10-19T16:01:52.263Z,7.70
2017-10-19T16:04:19.780Z,8.27
2017-10-19T16:06:47.328Z,8.63
2017-10-19T16:09:14.854Z,9.03
2017-10-19T16:11:42.436Z,8.43
2017-10-19T16:14:09.983Z,8.10
2017-10-19T16:16:37.539Z,8.67
2017-10-19T16:19:05.132Z,9.00
2017-10-19T16:21:32.678Z,8.83
2017-10-19T16:24:00.214Z,10.03
2017-10-19T16:26:27.933Z,8.63
2017-10-19T16:28:55.462Z,8.97
2017-10-19T16:31:23.407Z,9.60
2017-10-19T16:33:50.953Z,9.30
2017-10-19T16:36:18.480Z,8.60
2017-10-19T16:38:46.067Z,9.00
2017-10-19T16:41:13.632Z,10.03
2017-10-19T16:43:41.253Z,9.90
2017-10-19T16:46:08.789Z,8.50
2017-10-19T16:48:36.743Z,9.03
2017-10-19T16:51:04.272Z,9.60
2017-10-19T16:53:31.820Z,9.40
2017-10-19T16:55:59.783Z,10.57
2017-10-19T16:58:27.338Z,10.50
2017-10-19T17:00:54.911Z,10.33
2017-10-19T17:03:22.465Z,10.47
2017-10-19T17:05:50.010Z,9.93
2017-10-19T17:08:17.568Z,10.83
2017-10-19T17:10:45.103Z,10.43
2017-10-19T17:13:12.653Z,10.53
2017-10-19T17:15:40.198Z,9.30
2017-10-19T17:18:07.929Z,9.90
2017-10-19T17:20:35.472Z,9.70
2017-10-19T17:23:03.053Z,9.00
2017-10-19T17:25:30.626Z,10.90
2017-10-19T17:27:58.223Z,10.10
2017-10-19T17:30:25.777Z,9.93
2017-10-19T17:32:53.309Z,9.57
2017-10-19T17:35:20.866Z,10.20
2017-10-19T17:37:48.461Z,11.23
2017-10-19T17:40:16.033Z,9.37
2017-10-19T17:42:44.022Z,11.60
2017-10-19T17:45:11.610Z,10.03
2017-10-19T17:47:39.143Z,11.33
2017-10-19T17:50:06.708Z,10.60
2017-10-19T17:52:34.263Z,11.10
2017-10-19T17:55:02.579Z,11.43
2017-10-19T17:57:30.589Z,13.07
2017-10-19T17:59:58.580Z,10.80
2017-10-19T18:02:26.562Z,11.60
2017-10-19T18:04:54.155Z,11.83
2017-10-19T18:07:22.110Z,12.30
2017-10-19T18:09:49.944Z,12.50
2017-10-19T18:12:17.485Z,13.03
2017-10-19T18:14:45.443Z,11.73
2017-10-19T18:17:13.006Z,13.00
2017-10-19T18:19:40.544Z,12.80
2017-10-19T18:22:08.114Z,13.40
2017-10-19T18:24:35.650Z,12.70
2017-10-19T18:27:03.212Z,12.27
2017-10-19T18:29:30.774Z,14.17
2017-10-19T18:31:58.336Z,12.83
2017-10-19T18:34:25.887Z,12.93
2017-10-19T18:36:53.444Z,12.40
2017-10-19T18:39:20.976Z,12.80
2017-10-19T18:41:48.576Z,12.83
2017-10-19T18:44:16.193Z,12.70
2017-10-19T18:46:43.755Z,13.07
2017-10-19T18:49:11.327Z,12.70
2017-10-19T18:51:38.897Z,13.30
2017-10-19T18:54:06.446Z,11.70
2017-10-19T18:56:34.032Z,12.10
2017-10-19T18:59:01.581Z,12.20
2017-10-19T19:01:29.523Z,11.67
2017-10-19T19:03:57.161Z,11.70
2017-10-19T19:06:24.725Z,11.40
2017-10-19T19:08:52.313Z,11.87
2017-10-19T19:11:19.849Z,12.20
2017-10-19T19:13:47.790Z,12.70
2017-10-19T19:16:15.314Z,11.50
2017-10-19T19:18:42.873Z,12.90
2017-10-19T19:21:10.809Z,12.40
2017-10-19T19:23:38.365Z,12.30
2017-10-19T19:26:05.991Z,12.70
2017-10-19T19:28:33.955Z,11.17
2017-10-19T19:31:01.561Z,12.40
2017-10-19T19:33:29.529Z,11.90
2017-10-19T19:35:57.486Z,12.43
2017-10-19T19:38:25.457Z,11.90
2017-10-19T19:40:52.996Z,13.30
2017-10-19T19:43:20.571Z,11.93
2017-10-19T19:45:48.100Z,12.50
2017-10-19T19:48:16.239Z,12.37
2017-10-19T19:50:43.778Z,12.10
2017-10-19T19:53:11.318Z,11.20
2017-10-19T19:55:38.887Z,11.50
2017-10-19T19:58:06.423Z,10.93
2017-10-19T20:00:33.997Z,12.53
2017-10-19T20:03:01.549Z,12.60
2017-10-19T20:05:29.128Z,12.47
2017-10-19T20:07:56.686Z,12.23
2017-10-19T20:10:24.242Z,12.97
2017-10-19T20:12:52.172Z,12.00
2017-10-19T20:15:19.902Z,12.03
2017-10-19T20:17:47.465Z,12.63
2017-10-19T20:20:15.426Z,11.37
2017-10-19T20:22:42.990Z,9.87
2017-10-19T20:25:10.553Z,11.47
2017-10-19T20:27:38.111Z,11.53
2017-10-19T20:30:05.672Z,10.07
2017-10-19T20:32:33.254Z,11.37
2017-10-19T20:35:00.801Z,11.53
2017-10-19T20:37:28.372Z,11.70
2017-10-19T20:39:55.926Z,11.50
2017-10-19T20:42:23.877Z,11.20
2017-10-19T20:44:51.445Z,11.40
2017-10-19T20:47:19.007Z,12.10
2017-10-19T20:49:46.560Z,12.03
2017-10-19T20:52:14.111Z,10.97
2017-10-19T20:54:41.796Z,11.50
2017-10-19T20:57:09.367Z,10.90
2017-10-19T20:59:36.948Z,11.83
2017-10-19T21:02:04.499Z,11.90
2017-10-19T21:04:32.033Z,12.23
2017-10-19T21:06:59.589Z,10.53
2017-10-19T21:09:27.157Z,10.80
2017-10-19T21:11:54.719Z,10.37
2017-10-19T21:14:22.265Z,10.47
2017-10-19T21:16:49.829Z,10.67
2017-10-19T21:19:17.381Z,11.13
2017-10-19T21:21:45.356Z,11.50
2017-10-19T21:24:12.880Z,10.03
2017-10-19T21:26:40.408Z,10.70
2017-10-19T21:29:08.356Z,11.17
2017-10-19T21:31:35.900Z,9.63
2017-10-19T21:34:03.491Z,10.00
2017-10-19T21:36:31.046Z,10.50
2017-10-19T21:38:58.617Z,9.70
2017-10-19T21:41:26.165Z,10.43
2017-10-19T21:43:53.741Z,11.33
2017-10-19T21:46:22.193Z,9.73
2017-10-19T21:48:49.745Z,10.03
2017-10-19T21:51:17.309Z,10.20
2017-10-19T21:53:44.860Z,10.83
2017-10-19T21:56:12.425Z,10.00
2017-10-19T21:58:40.006Z,10.00
2017-10-19T22:01:07.583Z,9.70
2017-10-19T22:03:35.114Z,9.60
2017-10-19T22:06:03.097Z,9.27
2017-10-19T22:08:31.059Z,9.73
2017-10-19T22:10:58.610Z,9.57
2017-10-19T22:13:26.158Z,9.23
2017-10-19T22:15:53.685Z,9.70
2017-10-19T22:18:21.264Z,9.13
2017-10-19T22:20:49.206Z,9.33
2017-10-19T22:23:16.779Z,8.90
2017-10-19T22:25:44.325Z,9.67
2017-10-19T22:28:11.901Z,9.27
2017-10-19T22:30:39.457Z,8.70
2017-10-19T22:33:07.003Z,9.50
2017-10-19T22:35:34.559Z,8.90
2017-10-19T22:38:02.133Z,9.20
2017-10-19T22:40:30.101Z,8.80
2017-10-19T22:42:57.670Z,8.57
2017-10-19T22:45:25.206Z,8.90
2017-10-19T22:47:52.770Z,8.70
2017-10-19T22:50:20.442Z,8.87
2017-10-19T22:52:48.035Z,8.57
2017-10-19T22:55:15.573Z,7.83
2017-10-19T22:57:43.497Z,8.50
2017-10-19T23:00:11.049Z,8.17
2017-10-19T23:02:38.595Z,8.60
2017-10-19T23:05:06.551Z,8.27
2017-10-19T23:07:34.087Z,7.50
2017-10-19T23:10:01.666Z,7.87
2017-10-19T23:12:29.203Z,8.37
2017-10-19T23:14:56.730Z,8.30
2017-10-19T23:17:24.301Z,8.47
2017-10-19T23:19:51.844Z,7.57
2017-10-19T23:22:19.413Z,7.83
2017-10-19T23:24:46.954Z,7.47
2017-10-19T23:27:14.521Z,8.20
2017-10-19T23:29:42.091Z,7.80
2017-10-19T23:32:10.026Z,7.40
2017-10-19T23:34:37.589Z,7.40
2017-10-19T23:37:05.137Z,7.90
2017-10-19T23:39:32.681Z,6.90
2017-10-19T23:42:00.608Z,8.10
2017-10-19T23:44:28.162Z,7.23
2017-10-19T23:46:55.718Z,7.17
2017-10-19T23:49:23.301Z,7.87
2017-10-19T23:51:50.838Z,7.77
2017-10-19T23:54:18.784Z,6.67
2017-10-19T23:56:46.337Z,7.63
2017-10-19T23:59:13.894Z,7.23
